createdAt,value
2018-09-15T00:00:31.922Z,79.93
2018-09-15T00:01:31.913Z,80.21
2018-09-15T00:02:31.907Z,80.40
2018-09-15T00:03:31.901Z,81.07
2018-09-15T00:04:31.898Z,80.21
2018-09-15T00:05:31.888Z,80.30
2018-09-15T00:06:31.879Z,80.40
2018-09-15T00:07:31.872Z,80.21
2018-09-15T00:08:31.864Z,81.07
2018-09-15T00:09:31.860Z,80.30
2018-09-15T00:10:32.103Z,80.21
2018-09-15T00:11:31.845Z,80.40
2018-09-15T00:12:32.044Z,80.21
2018-09-15T00:13:31.830Z,79.83
2018-09-15T00:14:31.823Z,80.59
2018-09-15T00:15:31.815Z,80.98
2018-09-15T00:16:31.807Z,80.40
2018-09-15T00:17:31.801Z,80.79
2018-09-15T00:18:31.794Z,81.07
2018-09-15T00:19:31.787Z,81.16
2018-09-15T00:20:31.780Z,81.03
2018-09-15T00:21:31.775Z,81.32
2018-09-15T00:22:31.764Z,81.07
2018-09-15T00:23:31.757Z,81.32
2018-09-15T00:24:31.749Z,81.03
2018-09-15T00:25:31.745Z,81.45
2018-09-15T00:26:31.735Z,81.41
2018-09-15T00:27:31.732Z,81.26
2018-09-15T00:28:31.719Z,81.03
2018-09-15T00:29:31.712Z,80.93
2018-09-15T00:30:31.705Z,81.36
2018-09-15T00:31:31.697Z,81.51
2018-09-15T00:32:31.689Z,81.32
2018-09-15T00:33:31.685Z,81.16
2018-09-15T00:34:31.674Z,81.22
2018-09-15T00:35:31.668Z,81.32
2018-09-15T00:36:31.659Z,81.41
2018-09-15T00:37:31.652Z,81.22
2018-09-15T00:38:31.644Z,81.51
2018-09-15T00:39:31.637Z,81.22
2018-09-15T00:40:31.629Z,81.41
2018-09-15T00:41:31.620Z,81.89
2018-09-15T00:42:31.613Z,81.89
2018-09-15T00:43:31.617Z,81.60
2018-09-15T00:44:31.598Z,81.99
2018-09-15T00:45:31.590Z,82.18
2018-09-15T00:46:31.581Z,81.89
2018-09-15T00:47:31.593Z,82.56
2018-09-15T00:48:31.566Z,82.08
2018-09-15T00:49:31.559Z,82.46
2018-09-15T00:50:31.551Z,82.28
2018-09-15T00:51:31.543Z,82.18
2018-09-15T00:52:31.538Z,82.28
2018-09-15T00:53:31.532Z,82.65
2018-09-15T00:54:31.521Z,82.71
2018-09-15T00:55:31.514Z,82.37
2018-09-15T00:56:31.505Z,82.37
2018-09-15T00:57:31.497Z,82.65
2018-09-15T00:58:31.490Z,82.75
2018-09-15T00:59:31.482Z,83.00
2018-09-15T01:00:31.474Z,83.28
2018-09-15T01:01:31.467Z,83.09
2018-09-15T01:02:31.461Z,83.28
2018-09-15T01:03:31.452Z,83.00
2018-09-15T01:04:31.443Z,83.28
2018-09-15T01:05:31.438Z,82.90
2018-09-15T01:06:31.677Z,83.09
2018-09-15T01:07:31.422Z,83.09
2018-09-15T01:08:31.411Z,83.67
2018-09-15T01:09:31.404Z,83.00
2018-09-15T01:10:31.397Z,83.76
2018-09-15T01:11:31.391Z,83.67
2018-09-15T01:12:31.381Z,83.67
2018-09-15T01:13:31.376Z,83.47
2018-09-15T01:14:31.414Z,83.86
2018-09-15T01:15:31.358Z,84.43
2018-09-15T01:16:31.349Z,84.43
2018-09-15T01:17:31.342Z,84.43
2018-09-15T01:18:31.334Z,84.33
2018-09-15T01:19:31.327Z,84.23
2018-09-15T01:20:31.323Z,84.52
2018-09-15T01:21:31.309Z,84.86
2018-09-15T01:22:31.303Z,84.96
2018-09-15T01:23:31.295Z,84.67
2018-09-15T01:24:31.288Z,85.10
2018-09-15T01:25:31.279Z,85.34
2018-09-15T01:26:31.271Z,85.53
2018-09-15T01:27:31.263Z,85.44
2018-09-15T01:28:31.253Z,85.91
2018-09-15T01:29:31.247Z,85.91
2018-09-15T01:30:31.239Z,85.91
2018-09-15T01:31:31.232Z,86.30
2018-09-15T01:32:31.227Z,85.72
2018-09-15T01:33:31.214Z,86.20
2018-09-15T01:34:31.207Z,86.01
2018-09-15T01:35:31.199Z,85.91
2018-09-15T01:36:31.190Z,85.91
2018-09-15T01:37:31.185Z,85.91
2018-09-15T01:38:31.175Z,86.49
2018-09-15T01:39:31.167Z,86.58
2018-09-15T01:40:31.158Z,86.49
2018-09-15T01:41:31.150Z,86.30
2018-09-15T01:42:31.142Z,86.49
2018-09-15T01:43:31.134Z,86.77
2018-09-15T01:44:31.128Z,87.15
2018-09-15T01:45:31.118Z,86.68
2018-09-15T01:46:31.110Z,86.96
2018-09-15T01:47:31.101Z,87.25
2018-09-15T01:48:31.093Z,86.96
2018-09-15T01:49:31.085Z,86.87
2018-09-15T01:50:31.083Z,87.15
2018-09-15T01:51:31.070Z,86.68
2018-09-15T01:52:31.061Z,87.15
2018-09-15T01:53:31.054Z,87.06
2018-09-15T01:54:31.044Z,87.35
2018-09-15T01:55:31.036Z,87.02
2018-09-15T01:56:31.028Z,87.44
2018-09-15T01:57:31.059Z,87.44
2018-09-15T01:58:31.014Z,87.54
2018-09-15T01:59:31.007Z,87.54
2018-09-15T02:00:30.994Z,87.73
2018-09-15T02:01:30.986Z,87.87
2018-09-15T02:02:30.981Z,88.01
2018-09-15T02:03:30.970Z,87.82
2018-09-15T02:04:30.960Z,87.63
2018-09-15T02:05:30.951Z,87.73
2018-09-15T02:06:30.944Z,87.97
2018-09-15T02:07:30.936Z,88.11
2018-09-15T02:08:30.928Z,88.11
2018-09-15T02:09:30.922Z,88.01
2018-09-15T02:10:30.910Z,88.20
2018-09-15T02:11:30.902Z,88.11
2018-09-15T02:12:30.893Z,87.92
2018-09-15T02:13:30.884Z,88.30
2018-09-15T02:14:30.876Z,88.20
2018-09-15T02:15:30.867Z,88.68
2018-09-15T02:16:30.859Z,88.68
2018-09-15T02:17:30.850Z,88.26
2018-09-15T02:18:30.843Z,88.40
2018-09-15T02:19:30.833Z,88.20
2018-09-15T02:20:30.824Z,88.20
2018-09-15T02:21:30.816Z,88.59
2018-09-15T02:22:30.827Z,88.59
2018-09-15T02:23:30.799Z,89.06
2018-09-15T02:24:30.790Z,89.06
2018-09-15T02:25:30.782Z,88.78
2018-09-15T02:26:30.773Z,88.83
2018-09-15T02:27:30.765Z,88.87
2018-09-15T02:28:30.756Z,88.78
2018-09-15T02:29:30.751Z,88.87
2018-09-15T02:30:30.740Z,89.16
2018-09-15T02:31:30.731Z,89.35
2018-09-15T02:32:30.725Z,89.31
2018-09-15T02:33:30.714Z,89.54
2018-09-15T02:34:30.715Z,89.35
2018-09-15T02:35:30.699Z,89.50
2018-09-15T02:36:30.689Z,90.07
2018-09-15T02:37:30.683Z,89.35
2018-09-15T02:38:30.671Z,89.21
2018-09-15T02:39:30.661Z,89.92
2018-09-15T02:40:30.653Z,90.07
2018-09-15T02:41:30.645Z,89.88
2018-09-15T02:42:30.635Z,89.69
2018-09-15T02:43:30.629Z,89.69
2018-09-15T02:44:30.618Z,89.88
2018-09-15T02:45:30.610Z,90.55
2018-09-15T02:46:30.602Z,90.45
2018-09-15T02:47:30.593Z,90.40
2018-09-15T02:48:30.584Z,90.36
2018-09-15T02:49:30.576Z,90.36
2018-09-15T02:50:30.568Z,90.55
2018-09-15T02:51:30.559Z,90.36
2018-09-15T02:52:30.551Z,90.36
2018-09-15T02:53:30.542Z,90.93
2018-09-15T02:54:30.533Z,90.64
2018-09-15T02:55:30.525Z,90.93
2018-09-15T02:56:30.517Z,90.93
2018-09-15T02:57:30.508Z,90.93
2018-09-15T02:58:30.499Z,90.73
2018-09-15T02:59:30.492Z,91.41
2018-09-15T03:00:30.483Z,91.50
2018-09-15T03:01:30.473Z,91.50
2018-09-15T03:02:30.468Z,91.60
2018-09-15T03:03:30.458Z,91.41
2018-09-15T03:04:30.450Z,91.12
2018-09-15T03:05:30.440Z,91.50
2018-09-15T03:06:30.432Z,91.88
2018-09-15T03:07:30.424Z,90.73
2018-09-15T03:08:30.415Z,91.02
2018-09-15T03:09:30.407Z,91.78
2018-09-15T03:10:30.398Z,91.50
2018-09-15T03:11:30.391Z,91.60
2018-09-15T03:12:30.383Z,91.69
2018-09-15T03:13:30.374Z,92.46
2018-09-15T03:14:30.365Z,91.78
2018-09-15T03:15:30.357Z,92.36
2018-09-15T03:16:30.349Z,92.26
2018-09-15T03:17:30.338Z,92.26
2018-09-15T03:18:30.332Z,92.36
2018-09-15T03:19:30.323Z,92.26
2018-09-15T03:20:30.314Z,92.46
2018-09-15T03:21:30.307Z,92.36
2018-09-15T03:22:30.298Z,92.07
2018-09-15T03:23:30.290Z,92.07
2018-09-15T03:24:30.281Z,92.07
2018-09-15T03:25:30.275Z,92.36
2018-09-15T03:26:30.266Z,92.07
2018-09-15T03:27:30.255Z,92.93
2018-09-15T03:28:30.247Z,92.74
2018-09-15T03:29:30.249Z,92.65
2018-09-15T03:30:30.232Z,92.83
2018-09-15T03:31:30.223Z,92.74
2018-09-15T03:32:30.215Z,92.83
2018-09-15T03:33:30.206Z,92.74
2018-09-15T03:34:30.199Z,92.74
2018-09-15T03:35:30.190Z,93.41
2018-09-15T03:36:30.181Z,93.12
2018-09-15T03:37:30.175Z,93.22
2018-09-15T03:38:30.165Z,92.93
2018-09-15T03:39:30.159Z,93.12
2018-09-15T03:40:30.148Z,92.93
2018-09-15T03:41:30.166Z,93.12
2018-09-15T03:42:30.136Z,92.83
2018-09-15T03:43:30.126Z,93.46
2018-09-15T03:44:30.115Z,93.51
2018-09-15T03:45:30.107Z,93.36
2018-09-15T03:46:30.098Z,93.31
2018-09-15T03:47:30.091Z,93.31
2018-09-15T03:48:30.085Z,93.46
2018-09-15T03:49:30.073Z,93.46
2018-09-15T03:50:30.065Z,93.27
2018-09-15T03:51:30.057Z,94.03
2018-09-15T03:52:30.047Z,93.84
2018-09-15T03:53:30.041Z,94.17
2018-09-15T03:54:30.033Z,93.98
2018-09-15T03:55:30.050Z,93.74
2018-09-15T03:56:30.013Z,93.74
2018-09-15T03:57:30.006Z,93.65
2018-09-15T03:58:29.997Z,93.84
2018-09-15T03:59:29.989Z,93.88
2018-09-15T04:00:29.980Z,93.79
2018-09-15T04:01:29.971Z,93.79
2018-09-15T04:02:29.963Z,93.93
2018-09-15T04:03:29.955Z,93.55
2018-09-15T04:04:29.947Z,93.74
2018-09-15T04:05:29.937Z,94.27
2018-09-15T04:06:29.937Z,94.03
2018-09-15T04:07:29.921Z,94.51
2018-09-15T04:08:29.911Z,94.41
2018-09-15T04:09:29.922Z,94.51
2018-09-15T04:10:29.895Z,94.12
2018-09-15T04:11:29.886Z,94.98
2018-09-15T04:12:29.883Z,94.98
2018-09-15T04:13:29.869Z,95.08
2018-09-15T04:14:29.867Z,94.89
2018-09-15T04:15:29.853Z,95.08
2018-09-15T04:16:30.138Z,94.79
2018-09-15T04:17:29.835Z,94.60
2018-09-15T04:18:29.827Z,94.60
2018-09-15T04:19:29.818Z,94.79
2018-09-15T04:20:29.809Z,94.51
2018-09-15T04:21:29.802Z,95.08
2018-09-15T04:22:29.794Z,94.79
2018-09-15T04:23:29.784Z,94.98
2018-09-15T04:24:29.776Z,94.51
2018-09-15T04:25:29.768Z,94.60
2018-09-15T04:26:29.759Z,94.60
2018-09-15T04:27:29.754Z,94.41
2018-09-15T04:28:29.808Z,95.56
2018-09-15T04:29:29.733Z,95.17
2018-09-15T04:30:29.773Z,95.75
2018-09-15T04:31:29.717Z,95.37
2018-09-15T04:32:29.707Z,95.37
2018-09-15T04:33:29.698Z,95.37
2018-09-15T04:34:29.693Z,95.56
2018-09-15T04:35:29.683Z,95.75
2018-09-15T04:36:29.674Z,95.56
2018-09-15T04:37:29.665Z,95.37
2018-09-15T04:38:29.658Z,95.46
2018-09-15T04:39:29.649Z,95.46
2018-09-15T04:40:29.640Z,95.46
2018-09-15T04:41:29.632Z,95.84
2018-09-15T04:42:29.623Z,95.70
2018-09-15T04:43:29.616Z,95.61
2018-09-15T04:44:29.605Z,95.89
2018-09-15T04:45:29.597Z,95.70
2018-09-15T04:46:29.590Z,95.98
2018-09-15T04:47:29.581Z,95.61
2018-09-15T04:48:29.573Z,95.61
2018-09-15T04:49:29.563Z,95.51
2018-09-15T04:50:29.554Z,95.51
2018-09-15T04:51:29.546Z,95.79
2018-09-15T04:52:29.559Z,96.46
2018-09-15T04:53:29.531Z,96.46
2018-09-15T04:54:29.522Z,96.27
2018-09-15T04:55:29.513Z,95.89
2018-09-15T04:56:29.504Z,96.27
2018-09-15T04:57:29.546Z,96.84
2018-09-15T04:58:29.488Z,96.22
2018-09-15T04:59:29.480Z,96.13
2018-09-15T05:00:29.470Z,95.94
2018-09-15T05:01:29.461Z,96.13
2018-09-15T05:02:29.504Z,96.13
2018-09-15T05:03:29.447Z,96.32
2018-09-15T05:04:29.434Z,96.03
2018-09-15T05:05:29.438Z,96.32
2018-09-15T05:06:29.453Z,96.51
2018-09-15T05:07:29.413Z,96.22
2018-09-15T05:08:29.406Z,96.03
2018-09-15T05:09:29.393Z,96.51
2018-09-15T05:10:29.385Z,96.61
2018-09-15T05:11:29.377Z,96.22
2018-09-15T05:12:29.470Z,95.94
2018-09-15T05:13:29.360Z,96.32
2018-09-15T05:14:29.351Z,96.41
2018-09-15T05:15:29.343Z,96.80
2018-09-15T05:16:29.333Z,96.80
2018-09-15T05:17:29.325Z,96.32
2018-09-15T05:18:29.319Z,96.80
2018-09-15T05:19:29.514Z,96.70
2018-09-15T05:20:29.299Z,97.08
2018-09-15T05:21:29.292Z,96.32
2018-09-15T05:22:29.283Z,96.32
2018-09-15T05:23:29.274Z,96.75
2018-09-15T05:24:29.265Z,96.46
2018-09-15T05:25:29.257Z,96.51
2018-09-15T05:26:29.248Z,96.61
2018-09-15T05:27:29.242Z,96.61
2018-09-15T05:28:29.231Z,96.80
2018-09-15T05:29:29.226Z,96.51
2018-09-15T05:30:29.217Z,96.70
2018-09-15T05:31:29.226Z,96.51
2018-09-15T05:32:29.198Z,96.32
2018-09-15T05:33:29.189Z,96.41
2018-09-15T05:34:29.182Z,96.51
2018-09-15T05:35:29.172Z,96.22
2018-09-15T05:36:29.163Z,96.51
2018-09-15T05:37:29.155Z,96.70
2018-09-15T05:38:29.151Z,96.51
2018-09-15T05:39:29.138Z,96.70
2018-09-15T05:40:29.130Z,96.51
2018-09-15T05:41:29.123Z,96.80
2018-09-15T05:42:29.113Z,96.70
2018-09-15T05:43:29.109Z,96.70
2018-09-15T05:44:29.096Z,96.70
2018-09-15T05:45:29.089Z,96.70
2018-09-15T05:46:29.080Z,96.51
2018-09-15T05:47:29.073Z,96.51
2018-09-15T05:48:29.063Z,96.51
2018-09-15T05:49:29.094Z,96.61
2018-09-15T05:50:29.047Z,96.70
2018-09-15T05:51:29.040Z,96.41
2018-09-15T05:52:29.029Z,96.51
2018-09-15T05:53:29.024Z,96.51
2018-09-15T05:54:29.014Z,96.41
2018-09-15T05:55:29.008Z,96.51
2018-09-15T05:56:28.996Z,96.80
2018-09-15T05:57:28.989Z,96.41
2018-09-15T05:58:28.982Z,96.70
2018-09-15T05:59:28.975Z,96.13
2018-09-15T06:00:28.975Z,96.80
2018-09-15T06:01:28.962Z,96.13
2018-09-15T06:02:28.948Z,96.41
2018-09-15T06:03:28.944Z,96.13
2018-09-15T06:04:28.934Z,96.22
2018-09-15T06:05:28.927Z,96.17
2018-09-15T06:06:28.919Z,96.51
2018-09-15T06:07:28.947Z,95.79
2018-09-15T06:08:28.897Z,95.79
2018-09-15T06:09:28.893Z,95.89
2018-09-15T06:10:28.884Z,95.79
2018-09-15T06:11:28.874Z,95.61
2018-09-15T06:12:28.865Z,95.41
2018-09-15T06:13:28.860Z,95.41
2018-09-15T06:14:28.852Z,95.61
2018-09-15T06:15:28.844Z,94.84
2018-09-15T06:16:28.836Z,95.12
2018-09-15T06:17:28.825Z,94.74
2018-09-15T06:18:28.817Z,94.89
2018-09-15T06:19:28.809Z,95.03
2018-09-15T06:20:28.800Z,94.22
2018-09-15T06:21:28.793Z,94.17
2018-09-15T06:22:28.784Z,94.31
2018-09-15T06:23:28.776Z,94.70
2018-09-15T06:24:28.767Z,93.93
2018-09-15T06:25:28.760Z,94.12
2018-09-15T06:26:28.756Z,94.41
2018-09-15T06:27:28.744Z,94.12
2018-09-15T06:28:28.736Z,94.22
2018-09-15T06:29:28.727Z,93.46
2018-09-15T06:30:28.722Z,93.74
2018-09-15T06:31:28.712Z,94.31
2018-09-15T06:32:28.704Z,93.46
2018-09-15T06:33:28.695Z,93.36
2018-09-15T06:34:28.888Z,93.74
2018-09-15T06:35:28.682Z,93.17
2018-09-15T06:36:28.671Z,93.41
2018-09-15T06:37:28.663Z,93.21
2018-09-15T06:38:28.657Z,93.31
2018-09-15T06:39:28.709Z,93.31
2018-09-15T06:40:28.639Z,93.31
2018-09-15T06:41:28.632Z,93.31
2018-09-15T06:42:28.627Z,92.64
2018-09-15T06:43:28.817Z,92.83
2018-09-15T06:44:28.613Z,92.36
2018-09-15T06:45:28.651Z,92.59
2018-09-15T06:46:28.595Z,92.50
2018-09-15T06:47:28.589Z,91.74
2018-09-15T06:48:29.078Z,91.64
2018-09-15T06:49:28.570Z,92.11
2018-09-15T06:50:28.560Z,92.30
2018-09-15T06:51:28.566Z,92.11
2018-09-15T06:52:28.549Z,91.83
2018-09-15T06:53:28.540Z,91.83
2018-09-15T06:54:28.536Z,91.83
2018-09-15T06:55:28.542Z,92.30
2018-09-15T06:56:28.518Z,92.30
2018-09-15T06:57:28.511Z,92.59
2018-09-15T06:58:28.502Z,92.50
2018-09-15T06:59:28.496Z,91.93
2018-09-15T07:00:28.486Z,92.21
2018-09-15T07:01:28.481Z,91.64
2018-09-15T07:02:28.470Z,92.02
2018-09-15T07:03:28.463Z,91.30
2018-09-15T07:04:28.455Z,91.49
2018-09-15T07:05:28.451Z,91.20
2018-09-15T07:06:28.441Z,91.20
2018-09-15T07:07:28.437Z,90.82
2018-09-15T07:08:28.428Z,90.25
2018-09-15T07:09:28.420Z,90.20
2018-09-15T07:10:28.414Z,90.58
2018-09-15T07:11:28.405Z,90.58
2018-09-15T07:12:28.397Z,89.62
2018-09-15T07:13:28.392Z,89.72
2018-09-15T07:14:28.383Z,90.39
2018-09-15T07:15:28.379Z,89.91
2018-09-15T07:16:28.619Z,89.62
2018-09-15T07:17:28.362Z,88.76
2018-09-15T07:18:28.359Z,88.76
2018-09-15T07:19:28.349Z,89.24
2018-09-15T07:20:28.342Z,89.38
2018-09-15T07:21:28.338Z,88.62
2018-09-15T07:22:28.329Z,88.86
2018-09-15T07:23:28.323Z,88.38
2018-09-15T07:24:28.320Z,89.24
2018-09-15T07:25:28.312Z,88.76
2018-09-15T07:26:28.303Z,88.81
2018-09-15T07:27:28.302Z,88.67
2018-09-15T07:28:28.292Z,89.24
2018-09-15T07:29:28.289Z,89.34
2018-09-15T07:30:28.283Z,90.01
2018-09-15T07:31:28.305Z,90.67
2018-09-15T07:32:28.270Z,90.58
2018-09-15T07:33:28.264Z,90.87
2018-09-15T07:34:28.255Z,90.10
2018-09-15T07:35:28.256Z,90.48
2018-09-15T07:36:28.242Z,90.01
2018-09-15T07:37:28.284Z,90.30
2018-09-15T07:38:28.231Z,90.34
2018-09-15T07:39:28.228Z,89.67
2018-09-15T07:40:28.219Z,89.19
2018-09-15T07:41:28.213Z,88.81
2018-09-15T07:42:28.208Z,88.62
2018-09-15T07:43:28.209Z,88.04
2018-09-15T07:44:28.200Z,88.52
2018-09-15T07:45:28.191Z,89.00
2018-09-15T07:46:28.187Z,89.43
2018-09-15T07:47:28.180Z,90.30
2018-09-15T07:48:28.175Z,90.58
2018-09-15T07:49:28.168Z,90.30
2018-09-15T07:50:28.164Z,90.87
2018-09-15T07:51:28.211Z,90.67
2018-09-15T07:52:28.150Z,91.06
2018-09-15T07:53:28.166Z,91.25
2018-09-15T07:54:28.138Z,91.53
2018-09-15T07:55:28.133Z,90.87
2018-09-15T07:56:28.129Z,91.25
2018-09-15T07:57:28.210Z,90.63
2018-09-15T07:58:28.116Z,90.24
2018-09-15T07:59:28.112Z,88.76
2018-09-15T08:00:28.106Z,87.37
2018-09-15T08:01:28.107Z,86.88
2018-09-15T08:02:28.104Z,87.17
2018-09-15T08:03:28.097Z,86.88
2018-09-15T08:04:28.094Z,86.65
2018-09-15T08:05:28.092Z,87.23
2018-09-15T08:06:28.086Z,87.03
2018-09-15T08:07:28.088Z,86.74
2018-09-15T08:08:28.077Z,87.70
2018-09-15T08:09:28.081Z,87.65
2018-09-15T08:10:28.073Z,86.84
2018-09-15T08:11:28.070Z,87.03
2018-09-15T08:12:28.067Z,86.98
2018-09-15T08:13:28.068Z,85.97
2018-09-15T08:14:28.113Z,85.49
2018-09-15T08:15:28.062Z,83.86
2018-09-15T08:16:28.060Z,84.34
2018-09-15T08:17:28.058Z,83.95
2018-09-15T08:18:28.058Z,84.72
2018-09-15T08:19:28.258Z,84.28
2018-09-15T08:20:28.055Z,83.14
2018-09-15T08:21:28.058Z,82.46
2018-09-15T08:22:28.054Z,81.84
2018-09-15T08:23:28.058Z,81.84
2018-09-15T08:24:28.066Z,81.54
2018-09-15T08:25:28.056Z,80.24
2018-09-15T08:26:28.088Z,80.05
2018-09-15T08:27:28.056Z,79.86
2018-09-15T08:28:28.056Z,78.70
2018-09-15T08:29:28.056Z,78.90
2018-09-15T08:30:28.059Z,78.70
2018-09-15T08:31:28.065Z,78.61
2018-09-15T08:32:28.060Z,79.19
2018-09-15T08:33:28.062Z,78.90
2018-09-15T08:34:28.063Z,78.52
2018-09-15T08:35:28.065Z,78.27
2018-09-15T08:36:28.064Z,77.94
2018-09-15T08:37:28.074Z,78.61
2018-09-15T08:38:28.119Z,79.28
2018-09-15T08:39:28.074Z,79.57
2018-09-15T08:40:28.073Z,79.13
2018-09-15T08:41:28.156Z,77.50
2018-09-15T08:42:28.075Z,77.50
2018-09-15T08:43:28.075Z,77.40
2018-09-15T08:44:28.076Z,77.26
2018-09-15T08:45:28.077Z,78.61
2018-09-15T08:46:28.079Z,78.52
2018-09-15T08:47:28.079Z,78.65
2018-09-15T08:48:28.079Z,78.08
2018-09-15T08:49:28.083Z,77.31
2018-09-15T08:50:28.083Z,76.82
2018-09-15T08:51:28.139Z,77.11
2018-09-15T08:52:28.089Z,76.77
2018-09-15T08:53:28.082Z,75.32
2018-09-15T08:54:28.091Z,75.42
2018-09-15T08:55:28.089Z,75.42
2018-09-15T08:56:28.085Z,76.57
2018-09-15T08:57:28.090Z,76.92
2018-09-15T08:58:28.086Z,77.31
2018-09-15T08:59:28.089Z,77.88
2018-09-15T09:00:28.294Z,78.23
2018-09-15T09:01:28.091Z,79.09
2018-09-15T09:02:28.089Z,79.05
2018-09-15T09:03:28.091Z,80.30
2018-09-15T09:04:28.084Z,80.97
2018-09-15T09:05:28.081Z,81.51
2018-09-15T09:06:28.081Z,82.37
2018-09-15T09:07:28.079Z,82.56
2018-09-15T09:08:28.078Z,82.56
2018-09-15T09:09:28.075Z,82.12
2018-09-15T09:10:28.075Z,81.01
2018-09-15T09:11:28.071Z,79.86
2018-09-15T09:12:28.073Z,78.65
2018-09-15T09:13:28.067Z,78.17
2018-09-15T09:14:28.071Z,78.75
2018-09-15T09:15:28.065Z,77.98
2018-09-15T09:16:28.066Z,77.84
2018-09-15T09:17:28.062Z,77.84
2018-09-15T09:18:28.060Z,78.61
2018-09-15T09:19:28.059Z,79.28
2018-09-15T09:20:28.055Z,78.86
2018-09-15T09:21:28.055Z,79.53
2018-09-15T09:22:28.053Z,79.82
2018-09-15T09:23:28.054Z,81.12
2018-09-15T09:24:28.049Z,81.12
2018-09-15T09:25:28.046Z,81.02
2018-09-15T09:26:28.170Z,81.26
2018-09-15T09:27:28.039Z,79.05
2018-09-15T09:28:28.041Z,78.17
2018-09-15T09:29:28.036Z,76.29
2018-09-15T09:30:28.035Z,74.69
2018-09-15T09:31:28.036Z,73.73
2018-09-15T09:32:28.111Z,71.55
2018-09-15T09:33:28.036Z,72.38
2018-09-15T09:34:28.036Z,73.67
2018-09-15T09:35:28.039Z,71.71
2018-09-15T09:36:28.039Z,70.30
2018-09-15T09:37:28.041Z,70.15
2018-09-15T09:38:28.144Z,69.18
2018-09-15T09:39:28.047Z,68.41
2018-09-15T09:40:28.050Z,67.55
2018-09-15T09:41:28.075Z,67.58
2018-09-15T09:42:28.057Z,67.87
2018-09-15T09:43:28.062Z,66.14
2018-09-15T09:44:28.062Z,66.91
2018-09-15T09:45:28.072Z,66.62
2018-09-15T09:46:28.077Z,66.42
2018-09-15T09:47:28.077Z,67.39
2018-09-15T09:48:28.081Z,67.93
2018-09-15T09:50:28.082Z,68.03
2018-09-15T09:51:28.086Z,67.65
2018-09-15T09:52:28.088Z,67.42
2018-09-15T09:53:28.101Z,67.61
2018-09-15T09:55:28.095Z,68.92
2018-09-15T09:56:28.096Z,68.86
2018-09-15T09:57:28.098Z,67.51
2018-09-15T09:58:28.107Z,66.74
2018-09-15T09:59:28.104Z,67.71
2018-09-15T10:00:28.356Z,67.65
2018-09-15T10:01:28.115Z,66.78
2018-09-15T10:02:28.115Z,66.62
2018-09-15T10:03:28.115Z,65.24
2018-09-15T10:04:28.117Z,65.14
2018-09-15T10:05:28.128Z,66.46
2018-09-15T10:06:28.129Z,66.39
2018-09-15T10:07:28.128Z,67.74
2018-09-15T10:08:28.132Z,67.19
2018-09-15T10:09:28.136Z,66.94
2018-09-15T10:10:28.140Z,64.37
2018-09-15T10:11:28.144Z,63.31
2018-09-15T10:12:28.153Z,63.67
2018-09-15T10:13:28.154Z,64.63
2018-09-15T10:14:28.158Z,64.98
2018-09-15T10:15:28.162Z,64.95
2018-09-15T10:16:28.175Z,64.86
2018-09-15T10:17:28.167Z,66.49
2018-09-15T10:18:28.171Z,66.58
2018-09-15T10:19:28.174Z,64.69
2018-09-15T10:20:28.177Z,61.61
2018-09-15T10:21:28.237Z,60.58
2018-09-15T10:22:28.186Z,61.45
2018-09-15T10:23:28.191Z,62.03
2018-09-15T10:24:28.195Z,60.97
2018-09-15T10:25:28.201Z,61.07
2018-09-15T10:26:28.209Z,60.90
2018-09-15T10:27:28.212Z,61.87
2018-09-15T10:28:28.220Z,60.32
2018-09-15T10:29:28.226Z,60.10
2018-09-15T10:30:28.227Z,61.52
2018-09-15T10:31:28.231Z,61.90
2018-09-15T10:32:28.237Z,62.67
2018-09-15T10:33:28.241Z,63.70
2018-09-15T10:34:28.246Z,60.52
2018-09-15T10:35:28.250Z,60.39
2018-09-15T10:36:28.254Z,61.45
2018-09-15T10:37:28.260Z,60.10
2018-09-15T10:38:28.320Z,57.34
2018-09-15T10:39:28.267Z,56.76
2018-09-15T10:40:28.581Z,56.79
2018-09-15T10:41:28.281Z,55.54
2018-09-15T10:42:28.288Z,55.27
2018-09-15T10:43:28.290Z,54.79
2018-09-15T10:44:28.296Z,53.73
2018-09-15T10:45:28.306Z,53.92
2018-09-15T10:46:28.324Z,55.73
2018-09-15T10:47:28.317Z,56.59
2018-09-15T10:48:28.322Z,58.14
2018-09-15T10:49:28.324Z,55.82
2018-09-15T10:50:28.329Z,57.07
2018-09-15T10:51:28.337Z,56.49
2018-09-15T10:52:28.410Z,56.69
2018-09-15T10:53:28.345Z,56.09
2018-09-15T10:54:28.353Z,55.57
2018-09-15T10:55:28.359Z,57.98
2018-09-15T10:56:28.359Z,58.56
2018-09-15T10:57:28.368Z,58.11
2018-09-15T10:58:28.368Z,55.89
2018-09-15T10:59:28.374Z,55.82
2018-09-15T11:00:28.476Z,54.93
2018-09-15T11:01:28.386Z,54.86
2018-09-15T11:02:28.395Z,54.83
2018-09-15T11:03:28.393Z,54.93
2018-09-15T11:04:28.402Z,54.80
2018-09-15T11:05:28.405Z,55.22
2018-09-15T11:06:28.405Z,55.63
2018-09-15T11:07:28.415Z,55.05
2018-09-15T11:08:28.417Z,54.98
2018-09-15T11:09:28.421Z,53.73
2018-09-15T11:10:28.434Z,53.66
2018-09-15T11:11:28.434Z,53.15
2018-09-15T11:12:28.440Z,52.95
2018-09-15T11:13:28.601Z,52.37
2018-09-15T11:14:28.451Z,52.86
2018-09-15T11:15:28.462Z,51.03
2018-09-15T11:16:28.463Z,52.40
2018-09-15T11:17:28.473Z,52.89
2018-09-15T11:18:28.478Z,52.59
2018-09-15T11:19:28.483Z,53.97
2018-09-15T11:20:28.491Z,51.78
2018-09-15T11:21:28.501Z,52.23
2018-09-15T11:22:28.581Z,50.93
2018-09-15T11:23:28.514Z,52.83
2018-09-15T11:24:28.514Z,53.61
2018-09-15T11:25:28.521Z,53.31
2018-09-15T11:26:28.524Z,51.61
2018-09-15T11:27:28.533Z,50.90
2018-09-15T11:28:28.619Z,51.87
2018-09-15T11:29:28.539Z,50.35
2018-09-15T11:30:28.547Z,50.76
2018-09-15T11:31:28.550Z,50.21
2018-09-15T11:32:28.558Z,50.01
2018-09-15T11:33:28.563Z,49.27
2018-09-15T11:34:28.567Z,48.88
2018-09-15T11:35:28.572Z,49.55
2018-09-15T11:36:28.579Z,50.04
2018-09-15T11:37:28.590Z,49.85
2018-09-15T11:38:28.593Z,49.85
2018-09-15T11:39:28.801Z,49.75
2018-09-15T11:40:28.604Z,49.27
2018-09-15T11:41:28.616Z,50.31
2018-09-15T11:42:28.618Z,51.05
2018-09-15T11:43:28.630Z,52.47
2018-09-15T11:44:28.628Z,53.51
2018-09-15T11:45:28.632Z,54.28
2018-09-15T11:46:28.639Z,53.65
2018-09-15T11:47:28.640Z,55.00
2018-09-15T11:48:28.652Z,57.47
2018-09-15T11:49:28.648Z,55.09
2018-09-15T11:50:28.646Z,52.61
2018-09-15T11:51:28.652Z,53.22
2018-09-15T11:52:28.651Z,50.74
2018-09-15T11:53:28.655Z,49.99
2018-09-15T11:54:28.663Z,50.86
2018-09-15T11:55:28.664Z,48.54
2018-09-15T11:56:28.666Z,48.57
2018-09-15T11:57:28.674Z,48.01
2018-09-15T11:58:28.676Z,46.85
2018-09-15T11:59:28.684Z,45.33
2018-09-15T12:00:28.888Z,46.49
2018-09-15T12:01:28.697Z,45.52
2018-09-15T12:02:28.696Z,43.99
2018-09-15T12:03:28.700Z,45.45
2018-09-15T12:04:28.708Z,44.98
2018-09-15T12:05:28.713Z,45.08
2018-09-15T12:06:28.718Z,43.63
2018-09-15T12:07:28.725Z,44.89
2018-09-15T12:08:28.732Z,45.08
2018-09-15T12:09:28.938Z,43.61
2018-09-15T12:10:28.753Z,44.84
2018-09-15T12:11:28.747Z,46.08
2018-09-15T12:12:28.756Z,47.60
2018-09-15T12:13:28.756Z,49.22
2018-09-15T12:14:28.764Z,50.09
2018-09-15T12:15:28.966Z,49.90
2018-09-15T12:16:28.768Z,50.21
2018-09-15T12:17:28.772Z,50.45
2018-09-15T12:18:28.776Z,47.16
2018-09-15T12:19:28.785Z,47.00
2018-09-15T12:20:28.785Z,46.63
2018-09-15T12:21:28.816Z,46.34
2018-09-15T12:22:28.797Z,45.57
2018-09-15T12:23:28.799Z,44.26
2018-09-15T12:24:28.804Z,42.80
2018-09-15T12:25:28.809Z,42.61
2018-09-15T12:26:29.018Z,42.40
2018-09-15T12:27:28.819Z,41.52
2018-09-15T12:28:28.824Z,42.28
2018-09-15T12:29:28.833Z,43.63
2018-09-15T12:30:28.835Z,43.07
2018-09-15T12:31:28.846Z,42.88
2018-09-15T12:32:28.844Z,42.93
2018-09-15T12:33:28.905Z,43.99
2018-09-15T12:34:28.858Z,44.87
2018-09-15T12:35:28.858Z,43.59
2018-09-15T12:36:28.865Z,45.45
2018-09-15T12:37:28.867Z,45.06
2018-09-15T12:38:29.276Z,44.56
2018-09-15T12:39:28.889Z,43.78
2018-09-15T12:40:28.883Z,42.93
2018-09-15T12:41:28.882Z,42.47
2018-09-15T12:42:28.884Z,42.40
2018-09-15T12:43:28.890Z,42.13
2018-09-15T12:44:28.894Z,40.59
2018-09-15T12:45:28.896Z,39.92
2018-09-15T12:46:28.901Z,39.04
2018-09-15T12:47:28.909Z,39.62
2018-09-15T12:48:28.909Z,39.45
2018-09-15T12:49:28.914Z,39.45
2018-09-15T12:50:28.919Z,38.71
2018-09-15T12:51:28.924Z,37.84
2018-09-15T12:52:28.933Z,37.28
2018-09-15T12:53:28.932Z,37.57
2018-09-15T12:54:28.938Z,37.99